sensor_id;sensor_type;location;lat;lon;timestamp;P1;durP1;ratioP1;P2;durP2;ratioP2
67867;SDS011;54672;46.096;14.470;2022-07-12T00:00:41;3.58;;;2.20;;
67867;SDS011;54672;46.096;14.470;2022-07-12T00:03:06;3.17;;;2.30;;
67867;SDS011;54672;46.096;14.470;2022-07-12T00:05:32;6.53;;;2.40;;
67867;SDS011;54672;46.096;14.470;2022-07-12T00:07:57;2.95;;;2.15;;
67867;SDS011;54672;46.096;14.470;2022-07-12T00:10:23;6.05;;;2.53;;
67867;SDS011;54672;46.096;14.470;2022-07-12T00:12:48;4.13;;;2.40;;
67867;SDS011;54672;46.096;14.470;2022-07-12T00:15:13;3.17;;;2.30;;
67867;SDS011;54672;46.096;14.470;2022-07-12T00:17:41;3.28;;;2.20;;
67867;SDS011;54672;46.096;14.470;2022-07-12T00:20:07;3.00;;;2.10;;
67867;SDS011;54672;46.096;14.470;2022-07-12T00:22:33;6.72;;;2.60;;
67867;SDS011;54672;46.096;14.470;2022-07-12T00:24:58;4.00;;;2.30;;
67867;SDS011;54672;46.096;14.470;2022-07-12T00:27:23;3.15;;;2.33;;
67867;SDS011;54672;46.096;14.470;2022-07-12T00:29:49;4.07;;;2.33;;
67867;SDS011;54672;46.096;14.470;2022-07-12T00:32:14;4.70;;;2.47;;
67867;SDS011;54672;46.096;14.470;2022-07-12T00:34:40;3.33;;;2.25;;
67867;SDS011;54672;46.096;14.470;2022-07-12T00:37:05;4.93;;;2.40;;
67867;SDS011;54672;46.096;14.470;2022-07-12T00:39:30;3.33;;;2.20;;
67867;SDS011;54672;46.096;14.470;2022-07-12T00:41:56;9.65;;;2.33;;
67867;SDS011;54672;46.096;14.470;2022-07-12T00:44:21;4.72;;;2.35;;
67867;SDS011;54672;46.096;14.470;2022-07-12T00:46:47;3.72;;;2.45;;
67867;SDS011;54672;46.096;14.470;2022-07-12T00:49:13;3.42;;;2.15;;
67867;SDS011;54672;46.096;14.470;2022-07-12T00:51:41;3.17;;;2.38;;
67867;SDS011;54672;46.096;14.470;2022-07-12T00:54:09;4.55;;;2.40;;
67867;SDS011;54672;46.096;14.470;2022-07-12T00:56:36;4.50;;;2.30;;
67867;SDS011;54672;46.096;14.470;2022-07-12T00:59:02;4.05;;;2.40;;
67867;SDS011;54672;46.096;14.470;2022-07-12T01:01:28;3.63;;;2.50;;
67867;SDS011;54672;46.096;14.470;2022-07-12T01:03:53;3.70;;;2.50;;
67867;SDS011;54672;46.096;14.470;2022-07-12T01:06:20;4.63;;;2.60;;
67867;SDS011;54672;46.096;14.470;2022-07-12T01:08:45;5.10;;;2.67;;
67867;SDS011;54672;46.096;14.470;2022-07-12T01:11:11;3.58;;;2.40;;
67867;SDS011;54672;46.096;14.470;2022-07-12T01:13:37;4.40;;;2.35;;
67867;SDS011;54672;46.096;14.470;2022-07-12T01:16:04;6.20;;;2.70;;
67867;SDS011;54672;46.096;14.470;2022-07-12T01:18:31;5.68;;;2.50;;
67867;SDS011;54672;46.096;14.470;2022-07-12T01:20:57;3.10;;;2.20;;
67867;SDS011;54672;46.096;14.470;2022-07-12T01:23:29;3.22;;;2.20;;
67867;SDS011;54672;46.096;14.470;2022-07-12T01:25:55;3.75;;;2.50;;
67867;SDS011;54672;46.096;14.470;2022-07-12T01:28:21;4.50;;;2.65;;
67867;SDS011;54672;46.096;14.470;2022-07-12T01:30:47;4.00;;;2.75;;
67867;SDS011;54672;46.096;14.470;2022-07-12T01:33:13;3.72;;;2.65;;
67867;SDS011;54672;46.096;14.470;2022-07-12T01:35:40;4.30;;;3.05;;
67867;SDS011;54672;46.096;14.470;2022-07-12T01:38:07;6.78;;;2.60;;
67867;SDS011;54672;46.096;14.470;2022-07-12T01:40:32;6.10;;;2.72;;
67867;SDS011;54672;46.096;14.470;2022-07-12T01:43:00;3.60;;;2.55;;
67867;SDS011;54672;46.096;14.470;2022-07-12T01:45:26;2.75;;;2.08;;
67867;SDS011;54672;46.096;14.470;2022-07-12T01:47:52;7.88;;;2.50;;
67867;SDS011;54672;46.096;14.470;2022-07-12T01:50:18;3.92;;;2.78;;
67867;SDS011;54672;46.096;14.470;2022-07-12T01:52:44;3.78;;;2.80;;
67867;SDS011;54672;46.096;14.470;2022-07-12T01:55:10;6.85;;;2.60;;
67867;SDS011;54672;46.096;14.470;2022-07-12T01:57:37;4.10;;;2.83;;
67867;SDS011;54672;46.096;14.470;2022-07-12T02:00:04;4.70;;;2.72;;
67867;SDS011;54672;46.096;14.470;2022-07-12T02:02:31;3.50;;;2.40;;
67867;SDS011;54672;46.096;14.470;2022-07-12T02:04:57;4.32;;;2.80;;
67867;SDS011;54672;46.096;14.470;2022-07-12T02:07:26;4.05;;;2.67;;
67867;SDS011;54672;46.096;14.470;2022-07-12T02:09:51;4.63;;;2.50;;
67867;SDS011;54672;46.096;14.470;2022-07-12T02:12:17;6.05;;;2.92;;
67867;SDS011;54672;46.096;14.470;2022-07-12T02:14:42;6.22;;;2.75;;
67867;SDS011;54672;46.096;14.470;2022-07-12T02:17:08;3.72;;;2.90;;
67867;SDS011;54672;46.096;14.470;2022-07-12T02:19:33;3.60;;;2.50;;
67867;SDS011;54672;46.096;14.470;2022-07-12T02:21:59;4.00;;;2.60;;
67867;SDS011;54672;46.096;14.470;2022-07-12T02:24:24;5.13;;;2.67;;
67867;SDS011;54672;46.096;14.470;2022-07-12T02:26:49;3.78;;;2.70;;
67867;SDS011;54672;46.096;14.470;2022-07-12T02:29:15;4.20;;;2.67;;
67867;SDS011;54672;46.096;14.470;2022-07-12T02:31:41;4.75;;;2.63;;
67867;SDS011;54672;46.096;14.470;2022-07-12T02:34:06;5.93;;;3.17;;
67867;SDS011;54672;46.096;14.470;2022-07-12T02:36:32;4.82;;;2.80;;
67867;SDS011;54672;46.096;14.470;2022-07-12T02:38:58;3.17;;;2.35;;
67867;SDS011;54672;46.096;14.470;2022-07-12T02:41:28;3.97;;;2.80;;
67867;SDS011;54672;46.096;14.470;2022-07-12T02:43:53;4.63;;;2.92;;
67867;SDS011;54672;46.096;14.470;2022-07-12T02:46:19;6.50;;;3.58;;
67867;SDS011;54672;46.096;14.470;2022-07-12T02:48:44;5.88;;;3.78;;
67867;SDS011;54672;46.096;14.470;2022-07-12T02:51:10;6.80;;;4.55;;
67867;SDS011;54672;46.096;14.470;2022-07-12T02:53:35;6.50;;;4.75;;
67867;SDS011;54672;46.096;14.470;2022-07-12T02:56:01;7.93;;;4.93;;
67867;SDS011;54672;46.096;14.470;2022-07-12T02:58:27;7.85;;;4.25;;
67867;SDS011;54672;46.096;14.470;2022-07-12T03:00:53;6.95;;;4.75;;
67867;SDS011;54672;46.096;14.470;2022-07-12T03:03:18;8.02;;;4.95;;
67867;SDS011;54672;46.096;14.470;2022-07-12T03:05:44;8.52;;;5.28;;
67867;SDS011;54672;46.096;14.470;2022-07-12T03:08:10;7.57;;;4.95;;
67867;SDS011;54672;46.096;14.470;2022-07-12T03:10:36;14.07;;;5.25;;
67867;SDS011;54672;46.096;14.470;2022-07-12T03:13:02;7.22;;;4.47;;
67867;SDS011;54672;46.096;14.470;2022-07-12T03:15:28;9.02;;;4.53;;
67867;SDS011;54672;46.096;14.470;2022-07-12T03:17:54;7.88;;;4.70;;
67867;SDS011;54672;46.096;14.470;2022-07-12T03:20:20;9.55;;;4.60;;
67867;SDS011;54672;46.096;14.470;2022-07-12T03:22:46;7.82;;;3.45;;
67867;SDS011;54672;46.096;14.470;2022-07-12T03:25:14;6.95;;;3.88;;
67867;SDS011;54672;46.096;14.470;2022-07-12T03:27:40;5.68;;;3.50;;
67867;SDS011;54672;46.096;14.470;2022-07-12T03:30:06;7.13;;;3.50;;
67867;SDS011;54672;46.096;14.470;2022-07-12T03:32:33;6.05;;;3.80;;
67867;SDS011;54672;46.096;14.470;2022-07-12T03:34:59;4.72;;;3.45;;
67867;SDS011;54672;46.096;14.470;2022-07-12T03:37:24;4.90;;;3.53;;
67867;SDS011;54672;46.096;14.470;2022-07-12T03:39:49;6.05;;;3.47;;
67867;SDS011;54672;46.096;14.470;2022-07-12T03:42:15;7.90;;;3.47;;
67867;SDS011;54672;46.096;14.470;2022-07-12T03:44:40;5.00;;;3.20;;
67867;SDS011;54672;46.096;14.470;2022-07-12T03:47:06;4.82;;;3.20;;
67867;SDS011;54672;46.096;14.470;2022-07-12T03:49:31;4.78;;;3.17;;
67867;SDS011;54672;46.096;14.470;2022-07-12T03:51:57;4.35;;;2.90;;
67867;SDS011;54672;46.096;14.470;2022-07-12T03:54:22;7.72;;;3.20;;
67867;SDS011;54672;46.096;14.470;2022-07-12T03:56:48;5.68;;;2.80;;
67867;SDS011;54672;46.096;14.470;2022-07-12T03:59:32;4.22;;;3.05;;
67867;SDS011;54672;46.096;14.470;2022-07-12T04:01:58;4.60;;;2.70;;
67867;SDS011;54672;46.096;14.470;2022-07-12T04:04:23;3.83;;;2.70;;
67867;SDS011;54672;46.096;14.470;2022-07-12T04:06:49;5.80;;;2.83;;
67867;SDS011;54672;46.096;14.470;2022-07-12T04:09:14;4.72;;;3.08;;
67867;SDS011;54672;46.096;14.470;2022-07-12T04:11:40;5.00;;;3.08;;
67867;SDS011;54672;46.096;14.470;2022-07-12T04:14:05;4.90;;;3.40;;
67867;SDS011;54672;46.096;14.470;2022-07-12T04:16:30;5.68;;;3.90;;
67867;SDS011;54672;46.096;14.470;2022-07-12T04:18:56;5.78;;;3.65;;
67867;SDS011;54672;46.096;14.470;2022-07-12T04:21:22;7.55;;;3.85;;
67867;SDS011;54672;46.096;14.470;2022-07-12T04:23:47;7.90;;;3.90;;
67867;SDS011;54672;46.096;14.470;2022-07-12T04:26:13;6.85;;;4.18;;
67867;SDS011;54672;46.096;14.470;2022-07-12T04:28:38;5.57;;;4.00;;
67867;SDS011;54672;46.096;14.470;2022-07-12T04:31:04;8.52;;;4.25;;
67867;SDS011;54672;46.096;14.470;2022-07-12T04:33:30;5.20;;;3.50;;
67867;SDS011;54672;46.096;14.470;2022-07-12T04:35:55;7.63;;;3.95;;
67867;SDS011;54672;46.096;14.470;2022-07-12T04:38:21;9.13;;;3.90;;
67867;SDS011;54672;46.096;14.470;2022-07-12T04:40:46;5.47;;;3.25;;
67867;SDS011;54672;46.096;14.470;2022-07-12T04:43:12;3.58;;;2.70;;
67867;SDS011;54672;46.096;14.470;2022-07-12T04:45:37;5.97;;;3.17;;
67867;SDS011;54672;46.096;14.470;2022-07-12T04:48:03;7.75;;;2.90;;
67867;SDS011;54672;46.096;14.470;2022-07-12T04:50:28;5.88;;;2.97;;
67867;SDS011;54672;46.096;14.470;2022-07-12T04:52:54;4.95;;;2.97;;
67867;SDS011;54672;46.096;14.470;2022-07-12T04:55:19;4.15;;;3.00;;
67867;SDS011;54672;46.096;14.470;2022-07-12T04:57:45;3.35;;;2.85;;
67867;SDS011;54672;46.096;14.470;2022-07-12T05:00:10;5.53;;;3.08;;
67867;SDS011;54672;46.096;14.470;2022-07-12T05:02:36;5.47;;;3.30;;
67867;SDS011;54672;46.096;14.470;2022-07-12T05:05:02;4.63;;;2.70;;
67867;SDS011;54672;46.096;14.470;2022-07-12T05:07:27;5.22;;;3.10;;
67867;SDS011;54672;46.096;14.470;2022-07-12T05:09:53;5.35;;;2.63;;
67867;SDS011;54672;46.096;14.470;2022-07-12T05:12:19;4.13;;;2.90;;
67867;SDS011;54672;46.096;14.470;2022-07-12T05:14:45;4.78;;;3.30;;
67867;SDS011;54672;46.096;14.470;2022-07-12T05:17:10;5.78;;;3.03;;
67867;SDS011;54672;46.096;14.470;2022-07-12T05:19:39;9.68;;;3.55;;
67867;SDS011;54672;46.096;14.470;2022-07-12T05:22:04;6.68;;;3.17;;
67867;SDS011;54672;46.096;14.470;2022-07-12T05:24:30;5.65;;;3.42;;
67867;SDS011;54672;46.096;14.470;2022-07-12T05:26:55;6.90;;;4.43;;
67867;SDS011;54672;46.096;14.470;2022-07-12T05:29:21;5.70;;;3.35;;
67867;SDS011;54672;46.096;14.470;2022-07-12T05:31:46;9.30;;;3.35;;
67867;SDS011;54672;46.096;14.470;2022-07-12T05:34:12;8.73;;;3.05;;
67867;SDS011;54672;46.096;14.470;2022-07-12T05:36:38;7.13;;;3.25;;
67867;SDS011;54672;46.096;14.470;2022-07-12T05:39:04;6.18;;;3.30;;
67867;SDS011;54672;46.096;14.470;2022-07-12T05:41:30;5.35;;;3.50;;
67867;SDS011;54672;46.096;14.470;2022-07-12T05:43:55;4.57;;;2.92;;
67867;SDS011;54672;46.096;14.470;2022-07-12T05:46:21;5.32;;;3.30;;
67867;SDS011;54672;46.096;14.470;2022-07-12T05:48:46;6.15;;;3.40;;
67867;SDS011;54672;46.096;14.470;2022-07-12T05:51:11;6.43;;;3.97;;
67867;SDS011;54672;46.096;14.470;2022-07-12T05:53:56;4.20;;;3.20;;
67867;SDS011;54672;46.096;14.470;2022-07-12T05:56:21;5.60;;;3.10;;
67867;SDS011;54672;46.096;14.470;2022-07-12T05:58:47;4.03;;;3.00;;
67867;SDS011;54672;46.096;14.470;2022-07-12T06:01:12;3.55;;;2.80;;
67867;SDS011;54672;46.096;14.470;2022-07-12T06:03:37;3.78;;;3.00;;
67867;SDS011;54672;46.096;14.470;2022-07-12T06:06:03;3.22;;;2.67;;
67867;SDS011;54672;46.096;14.470;2022-07-12T06:08:29;3.90;;;2.75;;
67867;SDS011;54672;46.096;14.470;2022-07-12T06:10:55;3.90;;;2.80;;
67867;SDS011;54672;46.096;14.470;2022-07-12T06:13:20;4.45;;;2.72;;
67867;SDS011;54672;46.096;14.470;2022-07-12T06:15:46;4.28;;;2.90;;
67867;SDS011;54672;46.096;14.470;2022-07-12T06:18:11;4.13;;;2.97;;
67867;SDS011;54672;46.096;14.470;2022-07-12T06:20:37;3.40;;;2.78;;
67867;SDS011;54672;46.096;14.470;2022-07-12T06:23:02;4.43;;;2.80;;
67867;SDS011;54672;46.096;14.470;2022-07-12T06:25:28;4.45;;;2.95;;
67867;SDS011;54672;46.096;14.470;2022-07-12T06:27:53;3.88;;;2.55;;
67867;SDS011;54672;46.096;14.470;2022-07-12T06:30:19;4.70;;;2.70;;
67867;SDS011;54672;46.096;14.470;2022-07-12T06:32:45;6.05;;;2.70;;
67867;SDS011;54672;46.096;14.470;2022-07-12T06:35:12;4.55;;;2.80;;
67867;SDS011;54672;46.096;14.470;2022-07-12T06:37:38;4.00;;;2.83;;
67867;SDS011;54672;46.096;14.470;2022-07-12T06:40:04;4.18;;;2.75;;
67867;SDS011;54672;46.096;14.470;2022-07-12T06:42:30;3.47;;;3.00;;
67867;SDS011;54672;46.096;14.470;2022-07-12T06:44:55;4.50;;;2.72;;
67867;SDS011;54672;46.096;14.470;2022-07-12T06:47:21;3.58;;;2.70;;
67867;SDS011;54672;46.096;14.470;2022-07-12T06:49:47;4.78;;;2.72;;
67867;SDS011;54672;46.096;14.470;2022-07-12T06:52:12;6.40;;;2.92;;
67867;SDS011;54672;46.096;14.470;2022-07-12T06:54:38;4.93;;;3.00;;
67867;SDS011;54672;46.096;14.470;2022-07-12T06:57:03;6.95;;;3.20;;
67867;SDS011;54672;46.096;14.470;2022-07-12T06:59:29;3.95;;;2.63;;
67867;SDS011;54672;46.096;14.470;2022-07-12T07:01:54;4.93;;;2.60;;
67867;SDS011;54672;46.096;14.470;2022-07-12T07:04:22;3.58;;;2.60;;
67867;SDS011;54672;46.096;14.470;2022-07-12T07:06:49;8.13;;;3.00;;
67867;SDS011;54672;46.096;14.470;2022-07-12T07:09:14;5.07;;;2.63;;
67867;SDS011;54672;46.096;14.470;2022-07-12T07:11:40;4.47;;;2.90;;
67867;SDS011;54672;46.096;14.470;2022-07-12T07:14:07;6.40;;;2.90;;
67867;SDS011;54672;46.096;14.470;2022-07-12T07:16:33;3.67;;;2.90;;
67867;SDS011;54672;46.096;14.470;2022-07-12T07:18:58;4.70;;;3.13;;
67867;SDS011;54672;46.096;14.470;2022-07-12T07:21:23;3.50;;;2.63;;
67867;SDS011;54672;46.096;14.470;2022-07-12T07:23:49;4.40;;;2.40;;
67867;SDS011;54672;46.096;14.470;2022-07-12T07:26:15;4.22;;;2.70;;
67867;SDS011;54672;46.096;14.470;2022-07-12T07:28:41;6.88;;;2.53;;
67867;SDS011;54672;46.096;14.470;2022-07-12T07:31:25;5.07;;;2.20;;
67867;SDS011;54672;46.096;14.470;2022-07-12T07:33:50;3.47;;;2.13;;
67867;SDS011;54672;46.096;14.470;2022-07-12T07:36:16;5.00;;;2.80;;
67867;SDS011;54672;46.096;14.470;2022-07-12T07:38:41;3.75;;;2.60;;
67867;SDS011;54672;46.096;14.470;2022-07-12T07:41:06;4.40;;;2.33;;
67867;SDS011;54672;46.096;14.470;2022-07-12T07:43:32;3.60;;;2.30;;
67867;SDS011;54672;46.096;14.470;2022-07-12T07:45:58;3.53;;;2.00;;
67867;SDS011;54672;46.096;14.470;2022-07-12T07:48:24;2.92;;;2.13;;
67867;SDS011;54672;46.096;14.470;2022-07-12T07:50:49;4.03;;;2.45;;
67867;SDS011;54672;46.096;14.470;2022-07-12T07:53:15;3.75;;;2.55;;
67867;SDS011;54672;46.096;14.470;2022-07-12T07:55:40;4.35;;;2.75;;
67867;SDS011;54672;46.096;14.470;2022-07-12T07:58:06;4.65;;;2.83;;
67867;SDS011;54672;46.096;14.470;2022-07-12T08:00:32;3.47;;;2.30;;
67867;SDS011;54672;46.096;14.470;2022-07-12T08:02:57;5.68;;;2.83;;
67867;SDS011;54672;46.096;14.470;2022-07-12T08:05:23;6.15;;;2.10;;
67867;SDS011;54672;46.096;14.470;2022-07-12T08:07:49;3.95;;;2.42;;
67867;SDS011;54672;46.096;14.470;2022-07-12T08:10:14;5.60;;;2.92;;
67867;SDS011;54672;46.096;14.470;2022-07-12T08:12:40;4.57;;;2.35;;
67867;SDS011;54672;46.096;14.470;2022-07-12T08:15:05;3.78;;;2.30;;
67867;SDS011;54672;46.096;14.470;2022-07-12T08:17:31;5.40;;;2.80;;
67867;SDS011;54672;46.096;14.470;2022-07-12T08:19:56;4.38;;;2.58;;
67867;SDS011;54672;46.096;14.470;2022-07-12T08:22:22;3.65;;;2.10;;
67867;SDS011;54672;46.096;14.470;2022-07-12T08:24:48;5.20;;;2.33;;
67867;SDS011;54672;46.096;14.470;2022-07-12T08:27:14;4.82;;;2.08;;
67867;SDS011;54672;46.096;14.470;2022-07-12T08:29:40;2.80;;;1.90;;
67867;SDS011;54672;46.096;14.470;2022-07-12T08:32:05;2.20;;;1.67;;
67867;SDS011;54672;46.096;14.470;2022-07-12T08:34:32;3.45;;;1.60;;
67867;SDS011;54672;46.096;14.470;2022-07-12T08:36:58;2.40;;;1.80;;
67867;SDS011;54672;46.096;14.470;2022-07-12T08:39:23;3.40;;;1.80;;
67867;SDS011;54672;46.096;14.470;2022-07-12T08:41:49;2.75;;;1.67;;
67867;SDS011;54672;46.096;14.470;2022-07-12T08:44:14;4.90;;;1.65;;
67867;SDS011;54672;46.096;14.470;2022-07-12T08:46:40;3.00;;;1.70;;
67867;SDS011;54672;46.096;14.470;2022-07-12T08:49:06;3.42;;;1.50;;
67867;SDS011;54672;46.096;14.470;2022-07-12T08:51:35;2.80;;;1.70;;
67867;SDS011;54672;46.096;14.470;2022-07-12T08:54:11;5.55;;;1.80;;
67867;SDS011;54672;46.096;14.470;2022-07-12T08:56:41;3.25;;;1.50;;
67867;SDS011;54672;46.096;14.470;2022-07-12T08:59:11;3.00;;;1.67;;
67867;SDS011;54672;46.096;14.470;2022-07-12T09:01:41;3.58;;;1.30;;
67867;SDS011;54672;46.096;14.470;2022-07-12T09:04:09;2.85;;;1.52;;
67867;SDS011;54672;46.096;14.470;2022-07-12T09:06:36;2.53;;;1.50;;
67867;SDS011;54672;46.096;14.470;2022-07-12T09:09:01;2.78;;;1.50;;
67867;SDS011;54672;46.096;14.470;2022-07-12T09:11:27;2.00;;;1.42;;
67867;SDS011;54672;46.096;14.470;2022-07-12T09:13:53;1.90;;;1.40;;
67867;SDS011;54672;46.096;14.470;2022-07-12T09:16:23;2.92;;;1.40;;
67867;SDS011;54672;46.096;14.470;2022-07-12T09:18:50;1.90;;;1.27;;
67867;SDS011;54672;46.096;14.470;2022-07-12T09:21:26;3.38;;;1.70;;
67867;SDS011;54672;46.096;14.470;2022-07-12T09:23:55;5.00;;;1.58;;
67867;SDS011;54672;46.096;14.470;2022-07-12T09:26:23;1.70;;;1.50;;
67867;SDS011;54672;46.096;14.470;2022-07-12T09:29:31;2.10;;;1.38;;
67867;SDS011;54672;46.096;14.470;2022-07-12T09:34:34;2.55;;;1.45;;
67867;SDS011;54672;46.096;14.470;2022-07-12T09:37:19;2.03;;;1.50;;
67867;SDS011;54672;46.096;14.470;2022-07-12T09:39:45;1.80;;;1.40;;
67867;SDS011;54672;46.096;14.470;2022-07-12T09:42:12;2.88;;;1.40;;
67867;SDS011;54672;46.096;14.470;2022-07-12T09:44:41;2.17;;;1.48;;
67867;SDS011;54672;46.096;14.470;2022-07-12T09:47:11;2.97;;;1.50;;
67867;SDS011;54672;46.096;14.470;2022-07-12T09:49:42;2.55;;;1.38;;
67867;SDS011;54672;46.096;14.470;2022-07-12T09:52:19;3.90;;;1.55;;
67867;SDS011;54672;46.096;14.470;2022-07-12T09:54:50;2.20;;;1.27;;
67867;SDS011;54672;46.096;14.470;2022-07-12T09:57:35;2.13;;;1.45;;
67867;SDS011;54672;46.096;14.470;2022-07-12T10:00:05;2.63;;;2.10;;
67867;SDS011;54672;46.096;14.470;2022-07-12T10:02:34;2.13;;;1.55;;
67867;SDS011;54672;46.096;14.470;2022-07-12T10:05:00;2.75;;;1.33;;
67867;SDS011;54672;46.096;14.470;2022-07-12T10:07:30;3.30;;;1.55;;
67867;SDS011;54672;46.096;14.470;2022-07-12T10:09:56;2.22;;;1.50;;
67867;SDS011;54672;46.096;14.470;2022-07-12T10:12:22;2.78;;;1.50;;
67867;SDS011;54672;46.096;14.470;2022-07-12T10:14:51;4.03;;;1.80;;
67867;SDS011;54672;46.096;14.470;2022-07-12T10:17:25;2.63;;;1.50;;
67867;SDS011;54672;46.096;14.470;2022-07-12T10:22:43;3.30;;;1.50;;
67867;SDS011;54672;46.096;14.470;2022-07-12T10:27:50;2.30;;;1.45;;
67867;SDS011;54672;46.096;14.470;2022-07-12T10:30:16;4.10;;;1.55;;
67867;SDS011;54672;46.096;14.470;2022-07-12T10:32:43;3.05;;;1.60;;
67867;SDS011;54672;46.096;14.470;2022-07-12T10:35:16;2.80;;;1.60;;
67867;SDS011;54672;46.096;14.470;2022-07-12T10:40:36;2.40;;;1.38;;
67867;SDS011;54672;46.096;14.470;2022-07-12T10:45:39;3.40;;;1.67;;
67867;SDS011;54672;46.096;14.470;2022-07-12T10:48:06;3.42;;;1.45;;
67867;SDS011;54672;46.096;14.470;2022-07-12T10:58:29;5.22;;;1.90;;
67867;SDS011;54672;46.096;14.470;2022-07-12T11:00:56;2.55;;;1.45;;
67867;SDS011;54672;46.096;14.470;2022-07-12T11:03:22;2.40;;;1.50;;
67867;SDS011;54672;46.096;14.470;2022-07-12T11:05:48;4.43;;;1.48;;
67867;SDS011;54672;46.096;14.470;2022-07-12T11:08:15;2.67;;;1.52;;
67867;SDS011;54672;46.096;14.470;2022-07-12T11:10:53;2.03;;;1.30;;
67867;SDS011;54672;46.096;14.470;2022-07-12T11:13:20;2.22;;;1.42;;
67867;SDS011;54672;46.096;14.470;2022-07-12T11:15:57;2.28;;;1.40;;
67867;SDS011;54672;46.096;14.470;2022-07-12T11:20:59;3.30;;;1.30;;
67867;SDS011;54672;46.096;14.470;2022-07-12T11:23:25;2.75;;;1.50;;
67867;SDS011;54672;46.096;14.470;2022-07-12T11:25:54;3.30;;;1.50;;
67867;SDS011;54672;46.096;14.470;2022-07-12T11:28:21;2.53;;;1.50;;
67867;SDS011;54672;46.096;14.470;2022-07-12T11:30:48;2.20;;;1.60;;
67867;SDS011;54672;46.096;14.470;2022-07-12T11:33:17;2.50;;;1.50;;
67867;SDS011;54672;46.096;14.470;2022-07-12T11:35:43;3.42;;;1.70;;
67867;SDS011;54672;46.096;14.470;2022-07-12T11:38:10;2.20;;;1.60;;
67867;SDS011;54672;46.096;14.470;2022-07-12T11:40:35;2.55;;;1.90;;
67867;SDS011;54672;46.096;14.470;2022-07-12T11:43:01;3.05;;;1.63;;
67867;SDS011;54672;46.096;14.470;2022-07-12T11:45:29;2.53;;;1.60;;
67867;SDS011;54672;46.096;14.470;2022-07-12T11:47:57;3.17;;;1.70;;
67867;SDS011;54672;46.096;14.470;2022-07-12T11:50:24;2.70;;;1.60;;
67867;SDS011;54672;46.096;14.470;2022-07-12T11:52:50;2.28;;;1.75;;
67867;SDS011;54672;46.096;14.470;2022-07-12T11:55:15;3.30;;;2.03;;
67867;SDS011;54672;46.096;14.470;2022-07-12T11:57:41;2.53;;;1.80;;
67867;SDS011;54672;46.096;14.470;2022-07-12T12:00:16;2.20;;;1.80;;
67867;SDS011;54672;46.096;14.470;2022-07-12T12:02:43;2.35;;;1.60;;
67867;SDS011;54672;46.096;14.470;2022-07-12T12:05:09;2.33;;;1.65;;
67867;SDS011;54672;46.096;14.470;2022-07-12T12:07:35;2.25;;;1.67;;
67867;SDS011;54672;46.096;14.470;2022-07-12T12:10:13;2.60;;;1.63;;
67867;SDS011;54672;46.096;14.470;2022-07-12T12:12:50;2.80;;;1.80;;
67867;SDS011;54672;46.096;14.470;2022-07-12T12:15:23;3.20;;;1.80;;
67867;SDS011;54672;46.096;14.470;2022-07-12T12:20:23;3.95;;;1.98;;
67867;SDS011;54672;46.096;14.470;2022-07-12T12:22:53;2.00;;;1.65;;
67867;SDS011;54672;46.096;14.470;2022-07-12T12:25:42;2.55;;;1.80;;
67867;SDS011;54672;46.096;14.470;2022-07-12T12:28:08;3.55;;;1.80;;
67867;SDS011;54672;46.096;14.470;2022-07-12T12:30:34;1.90;;;1.70;;
67867;SDS011;54672;46.096;14.470;2022-07-12T12:33:12;2.10;;;1.80;;
67867;SDS011;54672;46.096;14.470;2022-07-12T12:35:38;2.03;;;1.80;;
67867;SDS011;54672;46.096;14.470;2022-07-12T12:38:10;2.40;;;1.65;;
67867;SDS011;54672;46.096;14.470;2022-07-12T12:40:38;2.97;;;1.75;;
67867;SDS011;54672;46.096;14.470;2022-07-12T12:43:10;4.82;;;1.85;;
67867;SDS011;54672;46.096;14.470;2022-07-12T12:45:50;1.67;;;1.55;;
67867;SDS011;54672;46.096;14.470;2022-07-12T12:48:21;2.85;;;1.60;;
67867;SDS011;54672;46.096;14.470;2022-07-12T12:50:48;3.13;;;1.80;;
67867;SDS011;54672;46.096;14.470;2022-07-12T12:55:44;1.92;;;1.70;;
67867;SDS011;54672;46.096;14.470;2022-07-12T12:58:11;3.33;;;2.20;;
67867;SDS011;54672;46.096;14.470;2022-07-12T13:00:39;2.45;;;1.60;;
67867;SDS011;54672;46.096;14.470;2022-07-12T13:03:06;4.78;;;2.00;;
67867;SDS011;54672;46.096;14.470;2022-07-12T13:05:33;2.05;;;1.60;;
67867;SDS011;54672;46.096;14.470;2022-07-12T13:08:00;2.08;;;1.70;;
67867;SDS011;54672;46.096;14.470;2022-07-12T13:10:26;3.80;;;1.90;;
67867;SDS011;54672;46.096;14.470;2022-07-12T13:12:52;2.92;;;1.92;;
67867;SDS011;54672;46.096;14.470;2022-07-12T13:15:17;2.15;;;1.70;;
67867;SDS011;54672;46.096;14.470;2022-07-12T13:17:43;3.10;;;1.98;;
67867;SDS011;54672;46.096;14.470;2022-07-12T13:20:09;2.20;;;1.77;;
67867;SDS011;54672;46.096;14.470;2022-07-12T13:22:37;3.00;;;1.98;;
67867;SDS011;54672;46.096;14.470;2022-07-12T13:25:04;2.13;;;1.88;;
67867;SDS011;54672;46.096;14.470;2022-07-12T13:27:30;2.63;;;2.08;;
67867;SDS011;54672;46.096;14.470;2022-07-12T13:29:56;3.45;;;1.80;;
67867;SDS011;54672;46.096;14.470;2022-07-12T13:32:22;2.88;;;1.80;;
67867;SDS011;54672;46.096;14.470;2022-07-12T13:34:47;3.13;;;1.63;;
67867;SDS011;54672;46.096;14.470;2022-07-12T13:37:13;1.80;;;1.63;;
67867;SDS011;54672;46.096;14.470;2022-07-12T13:39:39;2.25;;;1.70;;
67867;SDS011;54672;46.096;14.470;2022-07-12T13:42:23;2.20;;;1.60;;
67867;SDS011;54672;46.096;14.470;2022-07-12T13:44:50;4.03;;;1.73;;
67867;SDS011;54672;46.096;14.470;2022-07-12T13:47:16;2.83;;;1.90;;
67867;SDS011;54672;46.096;14.470;2022-07-12T13:49:41;2.53;;;1.60;;
67867;SDS011;54672;46.096;14.470;2022-07-12T13:52:07;2.30;;;1.90;;
67867;SDS011;54672;46.096;14.470;2022-07-12T13:54:32;1.80;;;1.50;;
67867;SDS011;54672;46.096;14.470;2022-07-12T13:56:59;2.55;;;1.75;;
67867;SDS011;54672;46.096;14.470;2022-07-12T13:59:25;2.83;;;1.90;;
67867;SDS011;54672;46.096;14.470;2022-07-12T14:01:51;2.67;;;1.80;;
67867;SDS011;54672;46.096;14.470;2022-07-12T14:04:16;4.70;;;1.90;;
67867;SDS011;54672;46.096;14.470;2022-07-12T14:06:41;2.00;;;1.80;;
67867;SDS011;54672;46.096;14.470;2022-07-12T14:09:07;3.97;;;1.73;;
67867;SDS011;54672;46.096;14.470;2022-07-12T14:11:32;3.55;;;1.80;;
67867;SDS011;54672;46.096;14.470;2022-07-12T14:13:59;3.45;;;1.80;;
67867;SDS011;54672;46.096;14.470;2022-07-12T14:16:24;7.20;;;2.10;;
67867;SDS011;54672;46.096;14.470;2022-07-12T14:18:50;2.75;;;2.05;;
67867;SDS011;54672;46.096;14.470;2022-07-12T14:21:15;2.47;;;2.13;;
67867;SDS011;54672;46.096;14.470;2022-07-12T14:23:41;2.28;;;1.70;;
67867;SDS011;54672;46.096;14.470;2022-07-12T14:26:07;2.15;;;1.75;;
67867;SDS011;54672;46.096;14.470;2022-07-12T14:28:32;3.03;;;1.80;;
67867;SDS011;54672;46.096;14.470;2022-07-12T14:30:58;2.75;;;1.63;;
67867;SDS011;54672;46.096;14.470;2022-07-12T14:33:24;2.67;;;1.58;;
67867;SDS011;54672;46.096;14.470;2022-07-12T14:35:49;2.80;;;1.55;;
67867;SDS011;54672;46.096;14.470;2022-07-12T14:38:14;1.65;;;1.40;;
67867;SDS011;54672;46.096;14.470;2022-07-12T14:40:40;1.90;;;1.42;;
67867;SDS011;54672;46.096;14.470;2022-07-12T14:43:06;1.98;;;1.27;;
67867;SDS011;54672;46.096;14.470;2022-07-12T14:45:31;2.13;;;1.58;;
67867;SDS011;54672;46.096;14.470;2022-07-12T14:47:57;1.85;;;1.40;;
67867;SDS011;54672;46.096;14.470;2022-07-12T14:50:22;2.50;;;1.63;;
67867;SDS011;54672;46.096;14.470;2022-07-12T14:52:48;2.17;;;1.60;;
67867;SDS011;54672;46.096;14.470;2022-07-12T14:55:13;3.47;;;2.00;;
67867;SDS011;54672;46.096;14.470;2022-07-12T14:57:39;2.58;;;1.70;;
67867;SDS011;54672;46.096;14.470;2022-07-12T15:00:08;2.95;;;1.70;;